createdAt,value
2022-12-11T00:01:45.513Z,8.00
2022-12-11T00:04:12.974Z,8.40
2022-12-11T00:06:42.336Z,8.48
2022-12-11T00:09:10.529Z,8.43
2022-12-11T00:11:38.012Z,8.27
2022-12-11T00:14:05.511Z,8.07
2022-12-11T00:16:32.972Z,8.25
2022-12-11T00:19:00.452Z,7.57
2022-12-11T00:21:27.897Z,8.07
2022-12-11T00:23:56.640Z,8.70
2022-12-11T00:26:24.081Z,8.05
2022-12-11T00:28:53.308Z,7.57
2022-12-11T00:31:20.959Z,7.83
2022-12-11T00:33:49.529Z,7.30
2022-12-11T00:36:18.067Z,7.90
2022-12-11T00:38:45.513Z,7.60
2022-12-11T00:41:14.276Z,8.02
2022-12-11T00:43:41.733Z,7.72
2022-12-11T00:46:09.190Z,8.50
2022-12-11T00:48:36.948Z,8.10
2022-12-11T00:51:04.495Z,7.95
2022-12-11T00:53:31.993Z,7.90
2022-12-11T00:55:59.457Z,7.68
2022-12-11T00:58:28.773Z,7.45
2022-12-11T01:00:56.238Z,8.10
2022-12-11T01:03:23.720Z,6.88
2022-12-11T01:05:54.154Z,7.35
2022-12-11T01:08:21.674Z,7.80
2022-12-11T01:10:49.304Z,7.60
2022-12-11T01:13:16.841Z,7.35
2022-12-11T01:15:46.108Z,7.15
2022-12-11T01:18:14.859Z,8.00
2022-12-11T01:20:43.327Z,7.13
2022-12-11T01:23:11.536Z,7.10
2022-12-11T01:25:39.057Z,6.95
2022-12-11T01:28:06.664Z,6.80
2022-12-11T01:30:34.258Z,6.75
2022-12-11T01:33:03.092Z,6.85
2022-12-11T01:35:30.563Z,7.10
2022-12-11T01:37:59.190Z,7.47
2022-12-11T01:40:26.705Z,7.45
2022-12-11T01:42:54.154Z,7.05
2022-12-11T01:45:30.529Z,6.80
2022-12-11T01:48:03.149Z,6.82
2022-12-11T01:50:31.124Z,7.35
2022-12-11T01:52:58.600Z,6.63
2022-12-11T01:55:26.122Z,6.93
2022-12-11T01:57:53.588Z,7.78
2022-12-11T02:00:21.199Z,6.43
2022-12-11T02:02:48.694Z,6.72
2022-12-11T02:05:17.532Z,7.22
2022-12-11T02:07:46.851Z,7.07
2022-12-11T02:10:14.360Z,7.40
2022-12-11T02:12:46.682Z,7.03
2022-12-11T02:15:24.803Z,6.93
2022-12-11T02:18:06.568Z,6.93
2022-12-11T02:20:50.217Z,6.82
2022-12-11T02:23:56.444Z,7.57
2022-12-11T02:26:38.337Z,6.75
2022-12-11T02:29:23.183Z,6.63
2022-12-11T02:31:52.733Z,7.35
2022-12-11T02:34:21.554Z,7.13
2022-12-11T02:36:51.875Z,6.80
2022-12-11T02:39:19.384Z,7.43
2022-12-11T02:41:49.099Z,7.72
2022-12-11T02:44:20.024Z,7.30
2022-12-11T02:46:47.508Z,7.95
2022-12-11T02:49:15.028Z,7.10
2022-12-11T02:51:43.268Z,7.60
2022-12-11T02:54:12.793Z,7.07
2022-12-11T02:56:42.414Z,7.80
2022-12-11T02:59:11.549Z,7.25
2022-12-11T03:01:40.411Z,7.93
2022-12-11T03:04:07.909Z,7.30
2022-12-11T03:06:38.407Z,7.68
2022-12-11T03:09:06.024Z,7.25
2022-12-11T03:11:33.502Z,7.18
2022-12-11T03:14:02.677Z,7.30
2022-12-11T03:16:32.069Z,7.60
2022-12-11T03:19:06.035Z,7.63
2022-12-11T03:21:35.847Z,7.78
2022-12-11T03:24:04.487Z,7.03
2022-12-11T03:26:32.886Z,7.95
2022-12-11T03:29:01.119Z,7.30
2022-12-11T03:31:30.647Z,8.48
2022-12-11T03:34:00.843Z,8.93
2022-12-11T03:38:58.825Z,8.00
2022-12-11T03:41:27.135Z,8.20
2022-12-11T03:43:55.828Z,8.63
2022-12-11T03:46:32.366Z,8.35
2022-12-11T03:49:25.910Z,7.63
2022-12-11T03:52:09.066Z,8.60
2022-12-11T03:54:40.743Z,9.02
2022-12-11T03:57:48.015Z,8.55
2022-12-11T04:00:20.744Z,9.20
2022-12-11T04:03:11.389Z,8.75
2022-12-11T04:06:06.357Z,8.95
2022-12-11T04:08:45.673Z,8.68
2022-12-11T04:11:40.637Z,8.33
2022-12-11T04:14:27.746Z,8.40
2022-12-11T04:17:07.226Z,8.88
2022-12-11T04:19:53.905Z,9.00
2022-12-11T04:22:43.159Z,8.32
2022-12-11T04:25:18.797Z,9.37
2022-12-11T04:27:53.461Z,9.07
2022-12-11T04:30:33.913Z,9.55
2022-12-11T04:36:04.491Z,8.65
2022-12-11T04:38:35.099Z,9.02
2022-12-11T04:41:06.447Z,9.00
2022-12-11T04:43:39.947Z,9.15
2022-12-11T04:46:16.134Z,8.85
2022-12-11T04:48:45.103Z,8.43
2022-12-11T04:51:13.995Z,8.80
2022-12-11T04:53:44.423Z,8.95
2022-12-11T04:56:14.561Z,8.10
2022-12-11T05:01:18.282Z,8.50
2022-12-11T05:03:56.065Z,8.07
2022-12-11T05:06:24.781Z,7.85
2022-12-11T05:08:59.251Z,8.15
2022-12-11T05:11:37.999Z,8.48
2022-12-11T05:14:09.144Z,8.32
2022-12-11T05:16:40.776Z,8.23
2022-12-11T05:19:15.089Z,8.68
2022-12-11T05:21:44.088Z,8.98
2022-12-11T05:24:21.583Z,8.50
2022-12-11T05:27:01.328Z,8.77
2022-12-11T05:29:30.425Z,9.10
2022-12-11T05:32:02.196Z,8.40
2022-12-11T05:34:31.587Z,9.40
2022-12-11T05:37:05.810Z,8.70
2022-12-11T05:39:45.060Z,8.50
2022-12-11T05:42:33.076Z,7.97
2022-12-11T05:45:01.850Z,8.73
2022-12-11T05:47:30.843Z,8.13
2022-12-11T05:49:59.552Z,8.18
2022-12-11T05:52:29.780Z,8.25
2022-12-11T05:57:39.105Z,8.57
2022-12-11T06:00:18.734Z,9.48
2022-12-11T06:02:47.851Z,7.97
2022-12-11T06:05:15.435Z,8.98
2022-12-11T06:07:42.857Z,8.30
2022-12-11T06:10:11.914Z,8.13
2022-12-11T06:12:39.354Z,8.65
2022-12-11T06:15:07.912Z,9.13
2022-12-11T06:17:35.509Z,8.70
2022-12-11T06:20:03.539Z,8.57
2022-12-11T06:22:31.512Z,9.00
2022-12-11T06:24:58.968Z,9.00
2022-12-11T06:27:27.726Z,8.98
2022-12-11T06:29:55.813Z,8.88
2022-12-11T06:32:23.278Z,8.45
2022-12-11T06:34:50.737Z,8.10
2022-12-11T06:37:18.233Z,8.57
2022-12-11T06:39:45.668Z,8.32
2022-12-11T06:42:13.352Z,8.77
2022-12-11T06:44:42.162Z,8.35
2022-12-11T06:47:09.646Z,8.70
2022-12-11T06:49:37.121Z,8.48
2022-12-11T06:52:05.120Z,8.98
2022-12-11T06:54:32.822Z,8.98
2022-12-11T06:57:00.267Z,9.05
2022-12-11T06:59:27.729Z,10.13
2022-12-11T07:01:56.554Z,8.90
2022-12-11T07:04:24.797Z,9.43
2022-12-11T07:06:53.206Z,8.32
2022-12-11T07:09:20.759Z,8.35
2022-12-11T07:11:50.466Z,9.63
2022-12-11T07:14:17.934Z,8.98
2022-12-11T07:16:45.446Z,8.73
2022-12-11T07:19:14.228Z,8.48
2022-12-11T07:21:41.698Z,9.52
2022-12-11T07:24:09.295Z,9.10
2022-12-11T07:26:36.731Z,8.82
2022-12-11T07:29:04.206Z,8.75
2022-12-11T07:31:31.723Z,9.32
2022-12-11T07:34:00.188Z,8.90
2022-12-11T07:36:29.107Z,7.93
2022-12-11T07:38:56.626Z,8.70
2022-12-11T07:41:24.228Z,9.32
2022-12-11T07:43:51.691Z,8.70
2022-12-11T07:46:20.170Z,8.75
2022-12-11T07:48:47.964Z,8.13
2022-12-11T07:51:16.752Z,8.65
2022-12-11T07:53:45.784Z,8.65
2022-12-11T07:56:13.485Z,8.40
2022-12-11T07:58:40.969Z,8.45
2022-12-11T08:01:11.718Z,8.80
2022-12-11T08:03:39.207Z,8.57
2022-12-11T08:06:07.341Z,9.10
2022-12-11T08:08:34.800Z,8.95
2022-12-11T08:11:03.574Z,8.60
2022-12-11T08:13:31.088Z,8.50
2022-12-11T08:15:58.695Z,8.38
2022-12-11T08:18:26.120Z,8.77
2022-12-11T08:20:53.592Z,8.55
2022-12-11T08:23:21.018Z,8.48
2022-12-11T08:25:48.561Z,9.25
2022-12-11T08:28:17.317Z,8.52
2022-12-11T08:30:44.839Z,8.60
2022-12-11T08:33:12.322Z,9.20
2022-12-11T08:35:40.215Z,8.02
2022-12-11T08:38:07.669Z,8.77
2022-12-11T08:40:35.135Z,8.32
2022-12-11T08:43:02.559Z,8.65
2022-12-11T08:45:31.412Z,8.70
2022-12-11T08:47:59.220Z,8.63
2022-12-11T08:50:26.760Z,9.18
2022-12-11T08:52:54.376Z,8.57
2022-12-11T08:55:22.059Z,9.13
2022-12-11T08:57:49.476Z,8.32
2022-12-11T09:00:18.436Z,8.60
2022-12-11T09:02:47.215Z,10.02
2022-12-11T09:05:14.757Z,9.40
2022-12-11T09:07:42.184Z,9.13
2022-12-11T09:10:10.375Z,9.15
2022-12-11T09:12:37.892Z,8.82
2022-12-11T09:15:06.121Z,9.32
2022-12-11T09:17:35.055Z,9.50
2022-12-11T09:20:05.727Z,9.02
2022-12-11T09:22:33.232Z,9.43
2022-12-11T09:25:00.704Z,10.63
2022-12-11T09:27:29.167Z,10.20
2022-12-11T09:29:56.649Z,9.63
2022-12-11T09:32:24.078Z,8.63
2022-12-11T09:34:51.678Z,9.68
2022-12-11T09:37:20.427Z,8.95
2022-12-11T09:39:48.085Z,10.90
2022-12-11T09:42:16.692Z,9.90
2022-12-11T09:44:45.269Z,10.75
2022-12-11T09:47:21.127Z,10.35
2022-12-11T09:49:49.500Z,9.82
2022-12-11T09:52:20.402Z,9.70
2022-12-11T09:54:50.352Z,11.07
2022-12-11T09:57:28.486Z,9.63
2022-12-11T10:00:05.975Z,10.32
2022-12-11T10:02:37.555Z,11.00
2022-12-11T10:05:09.273Z,10.90
2022-12-11T10:07:41.743Z,10.73
2022-12-11T10:10:14.547Z,10.82
2022-12-11T10:12:45.675Z,10.27
2022-12-11T10:15:17.916Z,11.68
2022-12-11T10:17:45.483Z,10.27
2022-12-11T10:20:20.558Z,10.73
2022-12-11T10:22:49.631Z,11.35
2022-12-11T10:25:20.790Z,11.70
2022-12-11T10:27:48.297Z,10.70
2022-12-11T10:30:17.213Z,10.80
2022-12-11T10:32:58.917Z,11.45
2022-12-11T10:35:32.816Z,10.63
2022-12-11T10:38:06.109Z,10.77
2022-12-11T10:40:33.540Z,10.50
2022-12-11T10:43:00.968Z,11.05
2022-12-11T10:45:28.429Z,10.70
2022-12-11T10:48:03.701Z,11.60
2022-12-11T10:50:31.204Z,10.77
2022-12-11T10:52:58.641Z,10.88
2022-12-11T10:55:28.830Z,10.52
2022-12-11T11:00:32.957Z,10.88
2022-12-11T11:03:00.638Z,11.85
2022-12-11T11:05:29.947Z,11.13
2022-12-11T11:08:04.689Z,10.37
2022-12-11T11:10:33.485Z,11.23
2022-12-11T11:13:01.793Z,10.70
2022-12-11T11:15:29.907Z,11.05
2022-12-11T11:17:58.386Z,10.88
2022-12-11T11:20:26.946Z,10.15
2022-12-11T11:22:55.630Z,9.90
2022-12-11T11:25:23.850Z,10.90
2022-12-11T11:27:53.633Z,11.40
2022-12-11T11:30:22.794Z,10.85
2022-12-11T11:32:51.593Z,10.93
2022-12-11T11:35:20.905Z,10.85
2022-12-11T11:37:55.702Z,10.27
2022-12-11T11:40:25.152Z,11.15
2022-12-11T11:42:59.521Z,10.88
2022-12-11T11:45:28.289Z,10.57
2022-12-11T11:48:06.275Z,12.10
2022-12-11T11:50:36.989Z,11.20
2022-12-11T11:53:06.608Z,12.30
2022-12-11T11:55:42.035Z,11.73
2022-12-11T11:58:16.344Z,12.05
2022-12-11T12:00:43.852Z,12.07
2022-12-11T12:03:12.333Z,12.40
2022-12-11T12:05:42.508Z,12.13
2022-12-11T12:10:42.001Z,11.05
2022-12-11T12:13:47.507Z,12.20
2022-12-11T12:16:05.011Z,12.73
2022-12-11T12:18:41.221Z,11.75
2022-12-11T12:21:12.163Z,11.63
2022-12-11T12:23:49.696Z,11.95
2022-12-11T12:26:21.567Z,11.70
2022-12-11T12:28:53.765Z,11.65
2022-12-11T12:31:30.614Z,11.63
2022-12-11T12:34:02.266Z,11.73
2022-12-11T12:36:34.087Z,10.77
2022-12-11T12:39:02.429Z,11.40
2022-12-11T12:41:36.414Z,11.77
2022-12-11T12:44:14.637Z,11.25
2022-12-11T12:46:49.007Z,10.90
2022-12-11T12:49:17.517Z,11.07
2022-12-11T12:51:45.169Z,11.10
2022-12-11T12:54:13.525Z,10.90
2022-12-11T12:56:43.542Z,10.70
2022-12-11T12:59:21.901Z,11.18
2022-12-11T13:01:52.163Z,11.45
2022-12-11T13:04:54.596Z,11.18
2022-12-11T13:07:23.111Z,10.90
2022-12-11T13:10:01.287Z,10.98
2022-12-11T13:12:33.869Z,11.77
2022-12-11T13:15:02.898Z,11.40
2022-12-11T13:17:37.372Z,11.13
2022-12-11T13:20:15.290Z,11.90
2022-12-11T13:22:50.636Z,11.13
2022-12-11T13:25:22.235Z,10.90
2022-12-11T13:27:50.126Z,11.50
2022-12-11T13:30:24.604Z,12.02
2022-12-11T13:32:59.397Z,11.63
2022-12-11T13:35:26.856Z,11.57
2022-12-11T13:37:55.240Z,11.45
2022-12-11T13:40:24.823Z,12.07
2022-12-11T13:42:53.685Z,11.45
2022-12-11T13:45:24.875Z,12.15
2022-12-11T13:47:52.341Z,10.82
2022-12-11T13:50:21.674Z,11.60
2022-12-11T13:52:54.474Z,10.47
2022-12-11T13:55:24.228Z,11.05
2022-12-11T13:57:51.881Z,10.65
2022-12-11T14:00:23.674Z,11.57
2022-12-11T14:02:51.116Z,12.13
2022-12-11T14:05:18.549Z,11.10
2022-12-11T14:07:48.381Z,11.98
2022-12-11T14:10:17.582Z,11.23
2022-12-11T14:12:45.886Z,12.40
2022-12-11T14:15:14.970Z,11.45
2022-12-11T14:17:50.010Z,11.55
2022-12-11T14:20:20.119Z,11.52
2022-12-11T14:22:47.568Z,11.68
2022-12-11T14:25:21.654Z,11.10
2022-12-11T14:27:49.564Z,11.38
2022-12-11T14:30:22.398Z,12.00
2022-12-11T14:32:51.156Z,12.00
2022-12-11T14:35:24.302Z,12.30
2022-12-11T14:37:51.845Z,12.27
2022-12-11T14:40:20.039Z,11.50
2022-12-11T14:42:48.808Z,11.45
2022-12-11T14:45:19.825Z,12.75
2022-12-11T14:47:47.280Z,12.80
2022-12-11T14:50:18.790Z,11.88
2022-12-11T14:52:48.102Z,11.65
2022-12-11T14:55:16.602Z,11.13
2022-12-11T14:57:44.937Z,12.10
2022-12-11T15:02:32.500Z,11.93
2022-12-11T15:05:06.828Z,12.82
2022-12-11T15:07:35.642Z,12.35
2022-12-11T15:10:03.878Z,12.35
2022-12-11T15:12:31.461Z,12.55
2022-12-11T15:15:00.643Z,12.35
2022-12-11T15:17:28.163Z,12.77
2022-12-11T15:19:56.771Z,13.35
2022-12-11T15:22:32.198Z,11.70
2022-12-11T15:25:00.995Z,11.98
2022-12-11T15:27:31.836Z,12.38
2022-12-11T15:29:59.286Z,13.13
2022-12-11T15:32:26.792Z,13.27
2022-12-11T15:34:54.745Z,12.02
2022-12-11T15:37:23.499Z,11.55
2022-12-11T15:39:50.965Z,12.80
2022-12-11T15:42:24.409Z,13.48
2022-12-11T15:44:51.875Z,13.05
2022-12-11T15:47:20.907Z,13.32
2022-12-11T15:49:48.342Z,12.80
2022-12-11T15:52:15.801Z,12.30
2022-12-11T15:54:43.261Z,12.70
2022-12-11T15:57:12.953Z,12.52
2022-12-11T15:59:41.709Z,13.48
2022-12-11T16:02:11.865Z,13.05
2022-12-11T16:07:06.750Z,13.35
2022-12-11T16:09:34.521Z,12.55
2022-12-11T16:12:02.258Z,13.13
2022-12-11T16:14:29.704Z,12.98
2022-12-11T16:16:58.474Z,12.15
2022-12-11T16:19:25.912Z,13.32
2022-12-11T16:21:53.379Z,12.98
2022-12-11T16:24:20.805Z,13.52
2022-12-11T16:26:48.252Z,12.90
2022-12-11T16:29:15.718Z,14.13
2022-12-11T16:31:43.676Z,13.18
2022-12-11T16:34:12.448Z,13.05
2022-12-11T16:36:39.891Z,12.85
2022-12-11T16:39:08.481Z,12.52
2022-12-11T16:41:36.433Z,13.13
2022-12-11T16:44:03.872Z,12.80
2022-12-11T16:46:31.374Z,12.85
2022-12-11T16:48:58.864Z,12.23
2022-12-11T16:51:27.638Z,12.40
2022-12-11T16:53:55.216Z,12.43
2022-12-11T16:56:22.672Z,12.27
2022-12-11T16:58:50.153Z,11.65
2022-12-11T17:01:17.638Z,11.43
2022-12-11T17:03:45.233Z,11.07
2022-12-11T17:06:13.323Z,11.15
2022-12-11T17:08:42.579Z,10.88
2022-12-11T17:11:10.735Z,11.07
2022-12-11T17:13:38.192Z,11.13
2022-12-11T17:16:06.399Z,11.43
2022-12-11T17:18:33.996Z,10.75
2022-12-11T17:21:02.783Z,11.48
2022-12-11T17:23:30.303Z,11.70
2022-12-11T17:25:59.095Z,10.38
2022-12-11T17:28:26.590Z,11.80
2022-12-11T17:30:54.083Z,10.70
2022-12-11T17:33:21.536Z,11.52
2022-12-11T17:35:49.007Z,10.63
2022-12-11T17:38:16.456Z,11.40
2022-12-11T17:40:43.956Z,10.88
2022-12-11T17:43:12.932Z,11.07
2022-12-11T17:45:43.228Z,10.00
2022-12-11T17:48:10.745Z,11.05
2022-12-11T17:50:40.876Z,10.30
2022-12-11T17:55:36.238Z,10.20
2022-12-11T17:58:03.802Z,11.40
2022-12-11T18:00:33.512Z,10.95
2022-12-11T18:03:01.090Z,11.07
2022-12-11T18:05:28.549Z,10.85
2022-12-11T18:07:57.869Z,10.82
2022-12-11T18:10:25.686Z,11.35
2022-12-11T18:12:53.117Z,10.98
2022-12-11T18:15:20.785Z,10.32
2022-12-11T18:17:49.549Z,12.13
2022-12-11T18:20:17.072Z,12.35
2022-12-11T18:22:44.509Z,11.55
2022-12-11T18:25:12.512Z,11.70
2022-12-11T18:27:40.388Z,12.40
2022-12-11T18:30:09.002Z,11.35
2022-12-11T18:32:36.440Z,12.27
2022-12-11T18:35:05.905Z,12.23
2022-12-11T18:37:33.333Z,11.98
2022-12-11T18:40:00.781Z,11.15
2022-12-11T18:42:33.145Z,11.20
2022-12-11T18:45:00.748Z,12.43
2022-12-11T18:47:28.236Z,11.75
2022-12-11T18:49:55.708Z,11.93
2022-12-11T18:52:24.555Z,11.77
2022-12-11T18:54:52.258Z,12.30
2022-12-11T18:57:19.716Z,13.00
2022-12-11T18:59:47.315Z,11.57
2022-12-11T19:02:14.947Z,13.00
2022-12-11T19:04:42.602Z,11.70
2022-12-11T19:07:10.060Z,12.35
2022-12-11T19:09:40.575Z,11.77
2022-12-11T19:12:09.901Z,12.43
2022-12-11T19:14:37.385Z,11.90
2022-12-11T19:17:04.803Z,12.15
2022-12-11T19:19:32.266Z,12.73
2022-12-11T19:21:59.969Z,12.00
2022-12-11T19:24:27.432Z,12.52
2022-12-11T19:26:56.205Z,11.48
2022-12-11T19:29:24.510Z,12.50
2022-12-11T19:31:52.020Z,12.38
2022-12-11T19:34:19.604Z,11.90
2022-12-11T19:36:47.058Z,11.68
2022-12-11T19:39:15.211Z,12.75
2022-12-11T19:41:42.734Z,12.40
2022-12-11T19:44:11.719Z,12.90
2022-12-11T19:46:39.339Z,12.82
2022-12-11T19:49:06.821Z,12.05
2022-12-11T19:51:36.876Z,12.98
2022-12-11T19:54:04.545Z,12.52
2022-12-11T19:56:32.282Z,13.20
2022-12-11T19:59:00.699Z,12.25
2022-12-11T20:01:30.984Z,11.80
2022-12-11T20:04:00.026Z,11.82
2022-12-11T20:06:27.968Z,11.63
2022-12-11T20:08:55.484Z,12.05
2022-12-11T20:11:23.050Z,12.50
2022-12-11T20:13:50.598Z,12.63
2022-12-11T20:16:33.328Z,12.70
2022-12-11T20:19:08.219Z,11.75
2022-12-11T20:21:35.665Z,12.45
2022-12-11T20:24:03.114Z,13.52
2022-12-11T20:26:32.411Z,12.88
2022-12-11T20:28:59.963Z,13.23
2022-12-11T20:31:27.897Z,12.65
2022-12-11T20:33:56.496Z,12.68
2022-12-11T20:36:25.960Z,12.68
2022-12-11T20:38:53.674Z,12.65
2022-12-11T20:41:22.180Z,12.00
2022-12-11T20:43:49.926Z,13.23
2022-12-11T20:46:18.302Z,11.75
2022-12-11T20:48:45.982Z,13.35
2022-12-11T20:51:14.053Z,12.50
2022-12-11T20:53:42.883Z,12.98
2022-12-11T20:56:12.897Z,12.77
2022-12-11T20:58:40.485Z,13.25
2022-12-11T21:01:08.005Z,12.32
2022-12-11T21:03:41.762Z,12.45
2022-12-11T21:06:09.562Z,13.32
2022-12-11T21:08:36.986Z,13.07
2022-12-11T21:11:07.993Z,11.98
2022-12-11T21:13:36.720Z,12.80
2022-12-11T21:16:06.083Z,13.23
2022-12-11T21:18:33.601Z,12.68
2022-12-11T21:21:01.038Z,12.13
2022-12-11T21:23:28.502Z,12.80
2022-12-11T21:25:56.039Z,12.45
2022-12-11T21:28:24.803Z,12.10
2022-12-11T21:30:52.311Z,12.95
2022-12-11T21:33:19.751Z,12.35
2022-12-11T21:35:54.876Z,12.25
2022-12-11T21:38:22.337Z,11.50
2022-12-11T21:40:49.797Z,12.40
2022-12-11T21:43:17.261Z,12.15
2022-12-11T21:46:02.266Z,11.38
2022-12-11T21:48:29.997Z,11.27
2022-12-11T21:51:05.838Z,12.82
2022-12-11T21:53:33.435Z,12.40
2022-12-11T21:56:00.888Z,12.25
2022-12-11T21:58:28.343Z,12.95
2022-12-11T22:00:57.156Z,13.68
2022-12-11T22:03:24.736Z,12.63
2022-12-11T22:05:52.191Z,12.38
2022-12-11T22:08:19.696Z,12.10
2022-12-11T22:10:47.233Z,12.65
2022-12-11T22:13:14.689Z,12.05
2022-12-11T22:15:42.268Z,11.57
2022-12-11T22:18:11.037Z,11.90
2022-12-11T22:20:38.480Z,12.73
2022-12-11T22:23:05.927Z,12.50
2022-12-11T22:25:33.401Z,11.30
2022-12-11T22:28:00.860Z,12.18
2022-12-11T22:30:28.383Z,13.32
2022-12-11T22:32:55.860Z,13.20
2022-12-11T22:35:27.280Z,12.48
2022-12-11T22:37:55.121Z,12.40
2022-12-11T22:40:22.612Z,12.40
2022-12-11T22:42:50.068Z,12.45
2022-12-11T22:45:17.598Z,12.70
2022-12-11T22:47:45.055Z,11.20
2022-12-11T22:50:12.887Z,12.05
2022-12-11T22:52:41.683Z,12.00
2022-12-11T22:55:09.721Z,12.38
2022-12-11T22:57:37.272Z,11.77
2022-12-11T23:00:05.678Z,11.73
2022-12-11T23:02:33.149Z,12.57
2022-12-11T23:05:00.640Z,12.35
2022-12-11T23:07:28.173Z,12.57
2022-12-11T23:09:57.034Z,11.98
2022-12-11T23:12:24.499Z,11.57
2022-12-11T23:14:51.996Z,10.95
2022-12-11T23:17:19.435Z,11.05
2022-12-11T23:19:46.879Z,11.50
2022-12-11T23:22:14.507Z,11.80
2022-12-11T23:24:41.962Z,11.32
2022-12-11T23:27:10.737Z,11.43
2022-12-11T23:29:38.214Z,11.32
2022-12-11T23:32:06.273Z,10.60
2022-12-11T23:34:33.703Z,11.13
2022-12-11T23:37:01.886Z,11.88
2022-12-11T23:39:29.311Z,11.85
2022-12-11T23:41:56.793Z,10.95
2022-12-11T23:44:25.583Z,11.82
2022-12-11T23:46:53.026Z,11.52
2022-12-11T23:49:20.463Z,11.18
2022-12-11T23:51:47.955Z,11.02
2022-12-11T23:54:15.395Z,11.57
2022-12-11T23:56:42.846Z,11.05
2022-12-11T23:59:12.840Z,11.40
